Time;durP1;ratioP1;P1;durP2;ratioP2;P2;SDS_P1;SDS_P2;PMS_P1;PMS_P2;Temp;Humidity;BMP_temperature;BMP_pressure;BME280_temperature;BME280_humidity;BME280_pressure;Samples;Min_cycle;Max_cycle;Signal;HPM_P1;HPM_P2
2022/01/24 00:00:10;;;;;;;;;;;9.60;54.60;;;;;;5083087;28;20144;-70
2022/01/24 00:02:37;;;;;;;;;;;9.60;54.50;;;;;;5083131;28;19948;-70
2022/01/24 00:05:03;;;;;;;;;;;9.60;54.50;;;;;;5082932;28;19912;-70
2022/01/24 00:07:29;;;;;;;;;;;9.60;54.40;;;;;;5082899;28;20223;-69
2022/01/24 00:09:58;;;;;;;;;;;9.60;54.40;;;;;;5081598;28;19905;-69
2022/01/24 00:18:02;;;;;;;;;;;9.60;54.50;;;;;;5082896;28;19919;-70
2022/01/24 00:28:25;;;;;;;;;;;9.50;54.50;;;;;;5082638;28;19951;-70
2022/01/24 00:30:51;;;;;;;;;;;9.60;54.60;;;;;;5082303;28;19917;-70
2022/01/24 00:33:19;;;;;;;;;;;9.60;54.50;;;;;;5081162;28;19918;-70
2022/01/24 00:35:45;;;;;;;;;;;9.50;54.50;;;;;;5082434;28;19950;-70
2022/01/24 00:38:11;;;;;;;;;;;9.50;54.50;;;;;;5082351;28;19916;-70
2022/01/24 00:40:39;;;;;;;;;;;9.50;54.60;;;;;;5082321;28;19940;-70
2022/01/24 00:43:17;;;;;;;;;;;9.50;54.50;;;;;;5082311;28;19913;-70
2022/01/24 00:45:58;;;;;;;;;;;9.50;54.60;;;;;;5082165;28;19979;-70
2022/01/24 00:48:37;;;;;;;;;;;9.50;54.60;;;;;;5080945;28;20168;-69
2022/01/24 00:54:01;;;;;;;;;;;9.50;54.50;;;;;;5082142;28;19920;-69
2022/01/24 00:56:26;;;;;;;;;;;9.50;54.60;;;;;;5080833;28;19912;-70
2022/01/24 00:58:52;;;;;;;;;;;9.50;54.60;;;;;;5081904;28;19913;-69
2022/01/24 01:01:17;;;;;;;;;;;9.50;54.70;;;;;;5080667;28;19947;-70
2022/01/24 01:03:43;;;;;;;;;;;9.40;54.70;;;;;;5081828;28;19912;-70
2022/01/24 01:06:10;;;;;;;;;;;9.40;54.60;;;;;;5081696;28;19913;-70
2022/01/24 01:19:34;;;;;;;;;;;9.40;54.50;;;;;;5081618;28;20223;-69
2022/01/24 01:22:00;;;;;;;;;;;9.40;54.50;;;;;;5081478;28;19912;-71
2022/01/24 01:24:27;;;;;;;;;;;9.40;54.60;;;;;;5081468;28;19921;-69
2022/01/24 01:27:07;;;;;;;;;;;9.40;54.60;;;;;;5081348;28;20185;-70
2022/01/24 01:29:46;;;;;;;;;;;9.40;54.50;;;;;;5081331;28;19912;-70
2022/01/24 01:37:52;;;;;;;;;;;9.40;54.60;;;;;;5081119;28;19912;-69
2022/01/24 01:55:51;;;;;;;;;;;9.40;54.50;;;;;;5080994;28;20000;-69
2022/01/24 01:58:18;;;;;;;;;;;9.40;54.60;;;;;;5080827;28;19920;-69
2022/01/24 02:00:45;;;;;;;;;;;9.40;54.70;;;;;;5080678;28;19936;-69
2022/01/24 02:03:11;;;;;;;;;;;9.30;54.70;;;;;;5080677;28;19916;-70
2022/01/24 02:05:36;;;;;;;;;;;9.30;54.80;;;;;;5080656;28;20002;-70
2022/01/24 02:08:03;;;;;;;;;;;9.30;54.70;;;;;;5080540;28;19912;-69
2022/01/24 02:10:29;;;;;;;;;;;9.30;54.70;;;;;;5080442;28;20248;-70
2022/01/24 02:12:56;;;;;;;;;;;9.40;54.70;;;;;;5080289;28;20112;-70
2022/01/24 02:15:35;;;;;;;;;;;9.40;54.70;;;;;;5080413;28;20011;-69
2022/01/24 02:25:50;;;;;;;;;;;9.30;54.70;;;;;;5080208;28;19974;-69
2022/01/24 02:28:18;;;;;;;;;;;9.30;54.70;;;;;;5080258;28;19913;-69
2022/01/24 02:33:15;;;;;;;;;;;9.30;54.70;;;;;;5080484;28;19919;-69
2022/01/24 02:35:41;;;;;;;;;;;9.30;55.30;;;;;;5080032;28;19912;-70
2022/01/24 02:38:17;;;;;;;;;;;9.30;54.70;;;;;;5080136;28;20304;-70
2022/01/24 02:45:58;;;;;;;;;;;9.30;54.70;;;;;;5078633;28;20348;-70
2022/01/24 02:48:57;;;;;;;;;;;9.30;54.70;;;;;;5079993;28;19958;-70
2022/01/24 02:53:48;;;;;;;;;;;9.30;54.60;;;;;;5079868;28;19912;-69
2022/01/24 02:56:14;;;;;;;;;;;9.30;54.60;;;;;;5079945;28;20201;-69
2022/01/24 02:58:39;;;;;;;;;;;9.30;54.60;;;;;;5079799;28;19913;-68
2022/01/24 03:01:07;;;;;;;;;;;9.30;54.70;;;;;;5079795;28;20286;-69
2022/01/24 03:03:33;;;;;;;;;;;9.30;54.70;;;;;;5079830;28;20344;-69
2022/01/24 03:05:59;;;;;;;;;;;9.30;54.70;;;;;;5079692;28;19912;-70
2022/01/24 03:08:25;;;;;;;;;;;9.30;54.70;;;;;;5079855;28;20142;-70
2022/01/24 03:10:52;;;;;;;;;;;9.30;54.60;;;;;;5079538;28;19916;-70
2022/01/24 03:15:54;;;;;;;;;;;9.30;54.70;;;;;;5079983;28;19919;-70
2022/01/24 03:18:20;;;;;;;;;;;9.30;54.70;;;;;;5079645;28;20233;-69
2022/01/24 03:20:46;;;;;;;;;;;9.30;54.70;;;;;;5079656;28;19920;-70
2022/01/24 03:23:15;;;;;;;;;;;9.30;54.70;;;;;;5079550;28;19979;-70
2022/01/24 03:25:41;;;;;;;;;;;9.20;54.70;;;;;;5079501;28;20081;-70
2022/01/24 03:28:07;;;;;;;;;;;9.20;54.70;;;;;;5079610;28;19916;-70
2022/01/24 03:30:34;;;;;;;;;;;9.20;54.60;;;;;;5079503;28;20214;-70
2022/01/24 03:33:00;;;;;;;;;;;9.20;55.20;;;;;;5079439;28;20095;-71
2022/01/24 03:35:26;;;;;;;;;;;9.20;54.60;;;;;;5079572;28;19913;-70
2022/01/24 03:37:51;;;;;;;;;;;9.20;54.70;;;;;;5079383;28;19913;-70
2022/01/24 03:40:17;;;;;;;;;;;9.20;54.70;;;;;;5079468;28;19912;-70
2022/01/24 03:42:42;;;;;;;;;;;9.20;54.70;;;;;;5079335;28;19962;-70
2022/01/24 03:45:10;;;;;;;;;;;9.20;54.70;;;;;;5079493;28;20494;-71
2022/01/24 03:50:03;;;;;;;;;;;9.20;54.80;;;;;;5079491;28;19913;-69
2022/01/24 03:52:31;;;;;;;;;;;9.20;54.70;;;;;;5079205;28;19953;-68
2022/01/24 03:54:58;;;;;;;;;;;9.20;54.70;;;;;;5079326;28;20331;-69
2022/01/24 03:57:25;;;;;;;;;;;9.20;54.60;;;;;;5082938;28;19995;-69
2022/01/24 03:59:51;;;;;;;;;;;9.20;54.70;;;;;;5082924;28;20314;-69
2022/01/24 04:02:18;;;;;;;;;;;9.20;54.70;;;;;;5082996;28;19970;-69
2022/01/24 04:04:44;;;;;;;;;;;9.20;54.70;;;;;;5082924;28;19985;-69
2022/01/24 04:07:10;;;;;;;;;;;9.10;54.80;;;;;;5082822;28;20140;-70
2022/01/24 04:09:38;;;;;;;;;;;9.10;54.70;;;;;;5081760;28;19919;-69
2022/01/24 04:12:04;;;;;;;;;;;9.20;54.70;;;;;;5082588;28;19999;-69
2022/01/24 04:17:19;;;;;;;;;;;9.20;54.70;;;;;;5082983;28;19924;-70
2022/01/24 04:22:18;;;;;;;;;;;9.20;54.70;;;;;;5082901;28;20318;-70
2022/01/24 04:24:45;;;;;;;;;;;9.10;54.70;;;;;;5082565;28;19920;-70
2022/01/24 04:27:11;;;;;;;;;;;9.10;54.80;;;;;;5082418;28;19920;-69
2022/01/24 04:29:37;;;;;;;;;;;9.10;54.70;;;;;;5082459;28;19962;-69
2022/01/24 04:32:03;;;;;;;;;;;9.10;54.60;;;;;;5082318;28;19995;-70
2022/01/24 04:34:28;;;;;;;;;;;9.10;54.70;;;;;;5082308;28;19905;-69
2022/01/24 04:36:54;;;;;;;;;;;9.10;54.60;;;;;;5082360;28;19947;-70
2022/01/24 04:39:20;;;;;;;;;;;9.10;54.70;;;;;;5082211;28;19975;-70
2022/01/24 04:41:49;;;;;;;;;;;9.10;54.70;;;;;;5082546;28;20379;-70
2022/01/24 04:44:49;;;;;;;;;;;9.10;54.80;;;;;;5082315;28;19956;-70
2022/01/24 04:47:22;;;;;;;;;;;9.10;54.80;;;;;;5082140;28;19959;-70
2022/01/24 04:52:43;;;;;;;;;;;9.10;54.70;;;;;;5082010;28;19922;-70
2022/01/24 04:55:09;;;;;;;;;;;9.10;54.60;;;;;;5081973;28;20187;-69
2022/01/24 04:57:34;;;;;;;;;;;9.10;54.60;;;;;;5081897;28;19912;-70
2022/01/24 05:00:02;;;;;;;;;;;9.10;54.60;;;;;;5081862;28;19913;-68
2022/01/24 05:02:27;;;;;;;;;;;9.10;54.60;;;;;;5081796;28;20193;-70
2022/01/24 05:04:54;;;;;;;;;;;9.10;54.60;;;;;;5081796;28;19911;-69
2022/01/24 05:07:20;;;;;;;;;;;9.10;54.70;;;;;;5081352;28;19918;-70
2022/01/24 05:10:06;;;;;;;;;;;9.10;54.70;;;;;;5081759;28;19920;-69
2022/01/24 05:25:51;;;;;;;;;;;9.00;54.70;;;;;;5081624;28;19912;-70
2022/01/24 05:28:17;;;;;;;;;;;9.00;54.80;;;;;;5081453;28;19950;-70
2022/01/24 05:30:42;;;;;;;;;;;9.00;54.80;;;;;;5081254;28;19987;-70
2022/01/24 05:33:08;;;;;;;;;;;9.00;54.70;;;;;;5081462;28;19904;-71
2022/01/24 05:35:33;;;;;;;;;;;9.00;54.60;;;;;;5081434;28;19920;-70
2022/01/24 05:37:59;;;;;;;;;;;9.00;54.70;;;;;;5081446;28;19940;-69
2022/01/24 05:40:25;;;;;;;;;;;9.00;54.70;;;;;;5081253;28;19944;-70
2022/01/24 05:42:50;;;;;;;;;;;9.00;54.80;;;;;;5081024;28;19951;-70
2022/01/24 05:45:16;;;;;;;;;;;9.00;54.70;;;;;;5080996;28;19980;-70
2022/01/24 05:47:42;;;;;;;;;;;9.00;54.70;;;;;;5079571;28;19912;-71
2022/01/24 05:50:08;;;;;;;;;;;9.00;54.70;;;;;;5080840;28;20384;-70
2022/01/24 05:52:33;;;;;;;;;;;9.00;54.70;;;;;;5080841;28;19905;-70
2022/01/24 05:54:59;;;;;;;;;;;9.00;54.60;;;;;;5080756;28;19983;-70
2022/01/24 05:57:25;;;;;;;;;;;9.00;54.70;;;;;;5080706;28;19913;-70
2022/01/24 05:59:50;;;;;;;;;;;9.00;54.70;;;;;;5080666;28;19943;-70
2022/01/24 06:02:16;;;;;;;;;;;9.00;54.70;;;;;;5080661;28;19912;-71
2022/01/24 06:04:41;;;;;;;;;;;9.00;54.80;;;;;;5080751;28;19979;-70
2022/01/24 06:07:07;;;;;;;;;;;9.00;54.80;;;;;;5080525;28;20150;-70
2022/01/24 06:09:33;;;;;;;;;;;9.00;54.90;;;;;;5080738;28;19911;-70
2022/01/24 06:11:58;;;;;;;;;;;8.90;54.70;;;;;;5080239;28;19932;-70
2022/01/24 06:14:24;;;;;;;;;;;9.00;54.70;;;;;;5080452;28;19965;-70
2022/01/24 06:16:49;;;;;;;;;;;9.00;54.70;;;;;;5080355;28;19919;-70
2022/01/24 06:19:15;;;;;;;;;;;9.00;54.70;;;;;;5079714;28;20002;-70
2022/01/24 06:21:44;;;;;;;;;;;9.00;54.80;;;;;;5080287;28;20098;-70
2022/01/24 06:24:10;;;;;;;;;;;9.00;54.80;;;;;;5080180;28;20423;-71
2022/01/24 06:26:36;;;;;;;;;;;8.90;54.70;;;;;;5078953;28;19987;-69
2022/01/24 06:29:02;;;;;;;;;;;8.90;54.80;;;;;;5080115;28;19916;-70
2022/01/24 06:31:27;;;;;;;;;;;8.90;54.70;;;;;;5080067;28;19925;-71
2022/01/24 06:33:53;;;;;;;;;;;8.90;54.70;;;;;;5080141;28;19943;-70
2022/01/24 06:36:18;;;;;;;;;;;8.90;54.70;;;;;;5080062;28;19983;-70
2022/01/24 06:38:44;;;;;;;;;;;9.00;54.70;;;;;;5080078;28;19913;-70
2022/01/24 06:41:10;;;;;;;;;;;9.00;54.60;;;;;;5078701;28;19944;-70
2022/01/24 06:43:35;;;;;;;;;;;8.90;54.70;;;;;;5080089;28;19959;-70
2022/01/24 06:46:01;;;;;;;;;;;8.90;54.70;;;;;;5079866;28;20220;-70
2022/01/24 06:48:27;;;;;;;;;;;8.90;54.60;;;;;;5079987;28;19983;-70
2022/01/24 06:50:53;;;;;;;;;;;8.90;54.60;;;;;;5079841;28;20109;-70
2022/01/24 06:53:19;;;;;;;;;;;8.90;54.60;;;;;;5079842;28;19942;-70
2022/01/24 06:55:45;;;;;;;;;;;8.90;54.70;;;;;;5079821;28;19919;-70
2022/01/24 06:58:11;;;;;;;;;;;9.00;54.70;;;;;;5079816;28;19943;-70
2022/01/24 07:00:37;;;;;;;;;;;8.90;54.60;;;;;;5079831;28;19913;-70
2022/01/24 07:03:02;;;;;;;;;;;8.90;54.70;;;;;;5079738;28;19912;-71
2022/01/24 07:05:29;;;;;;;;;;;8.90;54.70;;;;;;5079814;28;20426;-70
2022/01/24 07:07:56;;;;;;;;;;;8.90;54.60;;;;;;5079794;28;19920;-70
2022/01/24 07:10:25;;;;;;;;;;;8.90;54.50;;;;;;5079640;28;20252;-70
2022/01/24 07:12:51;;;;;;;;;;;8.90;54.50;;;;;;5079437;28;20011;-70
2022/01/24 07:15:20;;;;;;;;;;;9.00;54.50;;;;;;5079779;28;20123;-70
2022/01/24 07:20:35;;;;;;;;;;;9.00;54.60;;;;;;5079574;28;19920;-70
2022/01/24 07:23:01;;;;;;;;;;;8.90;54.60;;;;;;5079640;28;20167;-70
2022/01/24 07:25:26;;;;;;;;;;;8.90;54.60;;;;;;5079655;28;19913;-69
2022/01/24 07:27:52;;;;;;;;;;;8.90;54.60;;;;;;5079505;28;19970;-69
2022/01/24 07:30:17;;;;;;;;;;;8.90;54.40;;;;;;5081816;28;19924;-70
2022/01/24 07:32:43;;;;;;;;;;;9.00;54.50;;;;;;5083501;28;19912;-69
2022/01/24 07:35:09;;;;;;;;;;;9.00;54.50;;;;;;5083415;28;19935;-70
2022/01/24 07:37:34;;;;;;;;;;;9.00;54.50;;;;;;5083476;28;19947;-69
2022/01/24 07:40:01;;;;;;;;;;;9.00;54.50;;;;;;5083338;28;20112;-70
2022/01/24 07:42:39;;;;;;;;;;;8.90;54.50;;;;;;5083387;28;19958;-69
2022/01/24 07:45:05;;;;;;;;;;;8.90;54.60;;;;;;5083432;28;19912;-69
2022/01/24 07:47:31;;;;;;;;;;;8.90;54.50;;;;;;5083187;28;19913;-69
2022/01/24 07:49:56;;;;;;;;;;;9.00;54.40;;;;;;5083308;28;20370;-69
2022/01/24 07:52:22;;;;;;;;;;;9.00;54.30;;;;;;5083071;28;20204;-69
2022/01/24 07:54:47;;;;;;;;;;;9.00;54.30;;;;;;5083075;28;19912;-69
2022/01/24 07:57:13;;;;;;;;;;;9.10;54.30;;;;;;5083254;28;19971;-69
2022/01/24 07:59:39;;;;;;;;;;;9.10;54.20;;;;;;5083042;28;19979;-69
2022/01/24 08:02:04;;;;;;;;;;;9.10;54.10;;;;;;5082957;28;19961;-70
2022/01/24 08:04:30;;;;;;;;;;;9.20;54.10;;;;;;5082941;28;20078;-69
2022/01/24 08:06:55;;;;;;;;;;;9.20;54.10;;;;;;5082904;28;19912;-69
2022/01/24 08:09:21;;;;;;;;;;;9.30;53.90;;;;;;5082794;28;19983;-69
2022/01/24 08:11:47;;;;;;;;;;;9.40;53.70;;;;;;5082535;28;19982;-70
2022/01/24 08:14:12;;;;;;;;;;;9.40;53.60;;;;;;5082719;28;19979;-70
2022/01/24 08:16:40;;;;;;;;;;;9.50;53.50;;;;;;5082704;28;19912;-69
2022/01/24 08:19:07;;;;;;;;;;;9.50;53.50;;;;;;5081961;28;20775;-70
2022/01/24 08:21:33;;;;;;;;;;;9.50;53.40;;;;;;5082550;28;19905;-70
2022/01/24 08:24:01;;;;;;;;;;;9.50;53.40;;;;;;5082599;28;19913;-69
2022/01/24 08:26:26;;;;;;;;;;;9.60;53.90;;;;;;5082578;28;20205;-70
2022/01/24 08:28:52;;;;;;;;;;;9.60;53.30;;;;;;5082457;28;19919;-69
2022/01/24 08:31:18;;;;;;;;;;;9.70;53.10;;;;;;5082358;28;19916;-70
2022/01/24 08:33:44;;;;;;;;;;;9.80;52.80;;;;;;5082392;28;19904;-70
2022/01/24 08:36:10;;;;;;;;;;;9.80;52.80;;;;;;5082335;28;19941;-70
2022/01/24 08:38:36;;;;;;;;;;;9.80;52.70;;;;;;5082406;28;19979;-69
2022/01/24 08:41:08;;;;;;;;;;;9.90;52.70;;;;;;5081485;28;19913;-69
2022/01/24 08:43:59;;;;;;;;;;;9.90;52.20;;;;;;5082268;28;19913;-70
2022/01/24 08:46:23;;;;;;;;;;;10.00;52.30;;;;;;5081965;28;19913;-69
2022/01/24 08:48:49;;;;;;;;;;;10.00;52.20;;;;;;5080871;28;19905;-70
2022/01/24 08:51:14;;;;;;;;;;;10.00;52.20;;;;;;5082095;28;19920;-69
2022/01/24 08:53:40;;;;;;;;;;;10.10;52.20;;;;;;5081989;28;20128;-69
2022/01/24 08:56:06;;;;;;;;;;;10.00;52.10;;;;;;5080787;28;19913;-69
2022/01/24 08:58:33;;;;;;;;;;;10.00;52.10;;;;;;5080548;28;20340;-70
2022/01/24 09:00:59;;;;;;;;;;;10.00;52.30;;;;;;5081804;28;20017;-70
2022/01/24 09:03:29;;;;;;;;;;;10.00;52.40;;;;;;5081858;28;19920;-69
2022/01/24 09:05:57;;;;;;;;;;;10.00;52.30;;;;;;5081882;28;19968;-68
2022/01/24 09:08:23;;;;;;;;;;;10.10;52.90;;;;;;5081772;28;19916;-69
2022/01/24 09:10:50;;;;;;;;;;;10.10;52.20;;;;;;5080351;28;19953;-69
2022/01/24 09:13:16;;;;;;;;;;;10.10;52.30;;;;;;5081562;28;19932;-69
2022/01/24 09:15:42;;;;;;;;;;;10.00;52.30;;;;;;5081601;28;19923;-70
2022/01/24 09:18:08;;;;;;;;;;;10.10;52.20;;;;;;5081708;28;19912;-69
2022/01/24 09:20:34;;;;;;;;;;;10.10;52.60;;;;;;5081588;28;20022;-70
2022/01/24 09:23:00;;;;;;;;;;;10.10;52.00;;;;;;5081473;28;19918;-70
2022/01/24 09:25:26;;;;;;;;;;;10.20;52.10;;;;;;5081447;28;19913;-70
2022/01/24 09:27:52;;;;;;;;;;;10.20;51.90;;;;;;5080009;28;20003;-69
2022/01/24 09:30:19;;;;;;;;;;;10.10;52.00;;;;;;5081305;28;19918;-70
2022/01/24 09:32:45;;;;;;;;;;;10.10;52.20;;;;;;5081274;28;20226;-69
2022/01/24 09:35:11;;;;;;;;;;;10.10;52.40;;;;;;5081184;28;19912;-70
2022/01/24 09:37:38;;;;;;;;;;;10.10;52.40;;;;;;5081260;28;19912;-69
2022/01/24 09:40:04;;;;;;;;;;;10.10;52.50;;;;;;5081123;28;19908;-69
2022/01/24 09:42:31;;;;;;;;;;;10.10;52.40;;;;;;5080995;28;19983;-69
2022/01/24 09:44:56;;;;;;;;;;;10.10;52.30;;;;;;5081070;28;19912;-68
2022/01/24 09:47:22;;;;;;;;;;;10.10;52.30;;;;;;5080896;28;20018;-69
2022/01/24 09:49:49;;;;;;;;;;;10.20;52.30;;;;;;5080973;28;19922;-69
2022/01/24 09:52:14;;;;;;;;;;;10.20;52.20;;;;;;5080506;28;19916;-69
2022/01/24 09:54:40;;;;;;;;;;;10.20;52.20;;;;;;5078754;28;20368;-69
2022/01/24 09:57:06;;;;;;;;;;;10.20;52.50;;;;;;5080772;28;20116;-69
2022/01/24 09:59:32;;;;;;;;;;;10.20;52.20;;;;;;5080625;28;20132;-69
2022/01/24 10:01:58;;;;;;;;;;;10.20;52.30;;;;;;5080704;28;19939;-70
2022/01/24 10:04:25;;;;;;;;;;;10.20;52.30;;;;;;5080671;28;19917;-69
2022/01/24 10:06:58;;;;;;;;;;;10.20;52.10;;;;;;5080552;28;19912;-70
2022/01/24 10:09:33;;;;;;;;;;;10.30;52.40;;;;;;5080570;28;19936;-71
2022/01/24 10:12:05;;;;;;;;;;;10.30;52.20;;;;;;5080258;28;19915;-70
2022/01/24 10:17:22;;;;;;;;;;;10.30;52.00;;;;;;5080329;28;19919;-69
2022/01/24 10:19:49;;;;;;;;;;;10.30;52.10;;;;;;5080382;28;19904;-72
2022/01/24 10:22:14;;;;;;;;;;;10.30;52.00;;;;;;5080362;28;19939;-69
2022/01/24 10:24:44;;;;;;;;;;;10.30;52.20;;;;;;5080274;28;19913;-70
2022/01/24 10:27:10;;;;;;;;;;;10.30;52.20;;;;;;5080217;28;19912;-69
2022/01/24 10:29:44;;;;;;;;;;;10.30;52.30;;;;;;5078940;28;19919;-70
2022/01/24 10:32:26;;;;;;;;;;;10.30;52.30;;;;;;5080065;28;19939;-70
2022/01/24 10:34:52;;;;;;;;;;;10.30;52.20;;;;;;5080070;28;19913;-70
2022/01/24 10:37:20;;;;;;;;;;;10.40;52.30;;;;;;5078930;28;19970;-70
2022/01/24 10:39:55;;;;;;;;;;;10.30;52.20;;;;;;5080127;28;20389;-71
2022/01/24 10:45:18;;;;;;;;;;;10.40;52.40;;;;;;5080073;28;19919;-70
2022/01/24 10:47:48;;;;;;;;;;;10.40;52.40;;;;;;5080006;28;19911;-70
2022/01/24 10:50:24;;;;;;;;;;;10.40;52.90;;;;;;5079916;28;19912;-70
2022/01/24 10:52:51;;;;;;;;;;;10.40;52.20;;;;;;5079899;28;19912;-70
2022/01/24 10:55:18;;;;;;;;;;;10.40;52.20;;;;;;5079935;28;19975;-70
2022/01/24 10:57:46;;;;;;;;;;;10.40;52.20;;;;;;5078624;28;19912;-70
2022/01/24 11:00:22;;;;;;;;;;;10.50;52.10;;;;;;5079840;28;19913;-70
2022/01/24 11:02:49;;;;;;;;;;;10.50;52.20;;;;;;5079923;28;19969;-70
2022/01/24 11:05:16;;;;;;;;;;;10.40;52.30;;;;;;5079534;28;19940;-69
2022/01/24 11:07:56;;;;;;;;;;;10.50;52.20;;;;;;5079668;28;19912;-69
2022/01/24 11:10:22;;;;;;;;;;;10.50;52.20;;;;;;5079701;28;19954;-69
2022/01/24 11:12:48;;;;;;;;;;;10.50;52.10;;;;;;5079622;28;19943;-70
2022/01/24 11:15:14;;;;;;;;;;;10.50;52.30;;;;;;5079753;28;19934;-70
2022/01/24 11:17:40;;;;;;;;;;;10.50;52.30;;;;;;5079608;28;19912;-70
2022/01/24 11:20:09;;;;;;;;;;;10.50;52.40;;;;;;5079816;28;20116;-70
2022/01/24 11:22:40;;;;;;;;;;;10.50;52.30;;;;;;5079680;28;19920;-69
2022/01/24 11:25:08;;;;;;;;;;;10.50;52.30;;;;;;5079765;28;19912;-70
2022/01/24 11:27:34;;;;;;;;;;;10.50;52.50;;;;;;5078335;28;20139;-70
2022/01/24 11:30:08;;;;;;;;;;;10.60;52.50;;;;;;5079675;28;19912;-70
2022/01/24 11:32:38;;;;;;;;;;;10.60;52.40;;;;;;5079533;28;19908;-69
2022/01/24 11:35:04;;;;;;;;;;;10.50;52.30;;;;;;5079503;28;19911;-70
2022/01/24 11:37:31;;;;;;;;;;;10.60;52.10;;;;;;5079496;28;19912;-69
2022/01/24 11:39:56;;;;;;;;;;;10.60;52.20;;;;;;5079578;28;19947;-70
2022/01/24 11:42:29;;;;;;;;;;;10.60;52.30;;;;;;5079365;28;20094;-70
2022/01/24 11:44:58;;;;;;;;;;;10.60;52.30;;;;;;5079812;28;19970;-69
2022/01/24 11:47:26;;;;;;;;;;;10.60;52.10;;;;;;5078201;28;20010;-69
2022/01/24 11:49:53;;;;;;;;;;;10.60;52.30;;;;;;5079390;28;19919;-69
2022/01/24 11:52:20;;;;;;;;;;;10.60;52.20;;;;;;5079282;28;19923;-71
2022/01/24 11:55:01;;;;;;;;;;;10.60;52.10;;;;;;5079467;28;19905;-71
2022/01/24 11:57:27;;;;;;;;;;;10.60;52.20;;;;;;5079405;28;19926;-70
2022/01/24 12:00:05;;;;;;;;;;;10.60;52.30;;;;;;5079217;28;20109;-69
2022/01/24 12:02:41;;;;;;;;;;;10.60;52.30;;;;;;5079229;28;19973;-70
2022/01/24 12:05:17;;;;;;;;;;;10.70;52.30;;;;;;5079400;28;19912;-69
2022/01/24 12:07:43;;;;;;;;;;;10.60;52.30;;;;;;5079168;28;19920;-70
2022/01/24 12:10:21;;;;;;;;;;;10.60;52.40;;;;;;5079075;28;20204;-70
2022/01/24 12:12:49;;;;;;;;;;;10.70;52.40;;;;;;5077766;28;20116;-71
2022/01/24 12:15:33;;;;;;;;;;;10.60;52.30;;;;;;5079220;28;19912;-70
2022/01/24 12:18:01;;;;;;;;;;;10.70;52.40;;;;;;5080906;28;19912;-69
2022/01/24 12:20:30;;;;;;;;;;;10.70;52.40;;;;;;5082748;28;20187;-70
2022/01/24 12:22:58;;;;;;;;;;;10.70;52.40;;;;;;5082669;28;19934;-70
2022/01/24 12:25:42;;;;;;;;;;;10.60;52.50;;;;;;5082847;28;20300;-70
2022/01/24 12:28:15;;;;;;;;;;;10.60;52.60;;;;;;5082669;28;19976;-71
2022/01/24 12:30:59;;;;;;;;;;;10.60;52.60;;;;;;5082480;28;20212;-69
2022/01/24 12:33:32;;;;;;;;;;;10.60;52.50;;;;;;5082498;28;19974;-71
2022/01/24 12:35:58;;;;;;;;;;;10.70;52.60;;;;;;5082490;28;19923;-72
2022/01/24 12:38:23;;;;;;;;;;;10.60;52.40;;;;;;5082349;28;19932;-70
2022/01/24 12:41:09;;;;;;;;;;;10.60;52.60;;;;;;5082260;28;20258;-70
2022/01/24 12:43:51;;;;;;;;;;;10.60;52.40;;;;;;5082360;28;20058;-69
2022/01/24 12:46:19;;;;;;;;;;;10.70;52.60;;;;;;5082336;28;19999;-69
2022/01/24 12:48:49;;;;;;;;;;;10.60;52.50;;;;;;5082213;28;19954;-70
2022/01/24 12:51:16;;;;;;;;;;;10.70;52.40;;;;;;5082130;28;19984;-70
2022/01/24 12:53:42;;;;;;;;;;;10.70;52.40;;;;;;5080844;28;19912;-71
2022/01/24 12:56:08;;;;;;;;;;;10.60;52.70;;;;;;5082107;28;20151;-70
2022/01/24 12:58:40;;;;;;;;;;;10.60;52.70;;;;;;5082041;28;19905;-70
2022/01/24 13:01:16;;;;;;;;;;;10.60;52.70;;;;;;5082089;28;19916;-70
2022/01/24 13:03:52;;;;;;;;;;;10.60;52.50;;;;;;5081945;28;19935;-70
2022/01/24 13:06:18;;;;;;;;;;;10.70;52.30;;;;;;5081952;28;20143;-70
2022/01/24 13:08:53;;;;;;;;;;;10.70;52.60;;;;;;5082220;28;19912;-70
2022/01/24 13:11:18;;;;;;;;;;;10.70;52.60;;;;;;5080503;28;19970;-70
2022/01/24 13:14:07;;;;;;;;;;;10.70;52.60;;;;;;5081668;28;19991;-70
2022/01/24 13:22:24;;;;;;;;;;;10.70;52.60;;;;;;5081694;28;20304;-70
2022/01/24 13:25:02;;;;;;;;;;;10.80;52.60;;;;;;5081546;28;20152;-70
2022/01/24 13:27:41;;;;;;;;;;;10.80;52.50;;;;;;5081333;28;20165;-69
2022/01/24 13:30:11;;;;;;;;;;;10.70;52.50;;;;;;5080297;28;19976;-70
2022/01/24 13:32:47;;;;;;;;;;;10.80;52.50;;;;;;5081153;28;19920;-70
2022/01/24 13:35:16;;;;;;;;;;;10.70;52.80;;;;;;5080117;28;19916;-70
2022/01/24 13:37:42;;;;;;;;;;;10.80;52.80;;;;;;5081321;28;19935;-70
2022/01/24 13:40:08;;;;;;;;;;;10.70;52.70;;;;;;5081307;28;20224;-70
2022/01/24 13:42:34;;;;;;;;;;;10.70;52.70;;;;;;5081365;28;19911;-70
2022/01/24 13:45:00;;;;;;;;;;;10.80;52.80;;;;;;5081246;28;19912;-71
2022/01/24 13:47:25;;;;;;;;;;;10.80;52.80;;;;;;5081160;28;19983;-70
2022/01/24 13:49:51;;;;;;;;;;;10.80;52.90;;;;;;5079837;28;19913;-70
2022/01/24 13:52:18;;;;;;;;;;;10.80;52.90;;;;;;5081058;28;20395;-70
2022/01/24 13:54:44;;;;;;;;;;;10.80;52.80;;;;;;5081105;28;19931;-70
2022/01/24 13:57:15;;;;;;;;;;;10.80;52.70;;;;;;5081030;28;19912;-71
2022/01/24 13:59:42;;;;;;;;;;;10.80;52.70;;;;;;5079617;28;19913;-71
2022/01/24 14:02:11;;;;;;;;;;;10.80;52.90;;;;;;5080939;28;19912;-70
2022/01/24 14:04:57;;;;;;;;;;;10.80;52.70;;;;;;5080924;28;19918;-69
2022/01/24 14:07:23;;;;;;;;;;;10.90;52.80;;;;;;5079462;28;19919;-68
2022/01/24 14:09:52;;;;;;;;;;;10.90;52.70;;;;;;5080720;28;19927;-69
2022/01/24 14:12:35;;;;;;;;;;;10.90;52.60;;;;;;5080470;28;20154;-71
2022/01/24 14:15:09;;;;;;;;;;;10.90;52.70;;;;;;5080677;28;19975;-71
2022/01/24 14:18:09;;;;;;;;;;;10.90;52.60;;;;;;5080697;28;20217;-70
2022/01/24 14:20:23;;;;;;;;;;;10.90;52.60;;;;;;5080335;28;19904;-70
2022/01/24 14:22:51;;;;;;;;;;;10.90;52.80;;;;;;5080530;28;20414;-69
2022/01/24 14:25:25;;;;;;;;;;;10.90;52.90;;;;;;5080543;28;20219;-69
2022/01/24 14:28:10;;;;;;;;;;;10.90;52.80;;;;;;5080393;28;19920;-70
2022/01/24 14:30:41;;;;;;;;;;;10.90;52.80;;;;;;5079430;28;19916;-70
2022/01/24 14:33:35;;;;;;;;;;;10.90;52.70;;;;;;5079247;28;19918;-70
2022/01/24 14:36:09;;;;;;;;;;;10.90;52.80;;;;;;5084174;28;20243;-71
2022/01/24 14:38:35;;;;;;;;;;;10.90;53.10;;;;;;5078862;28;19927;-70
2022/01/24 14:41:05;;;;;;;;;;;10.90;53.00;;;;;;5079958;28;19912;-70
2022/01/24 14:46:34;;;;;;;;;;;10.90;52.90;;;;;;5067882;28;19982;-70
2022/01/24 14:49:04;;;;;;;;;;;10.90;52.90;;;;;;5080201;28;19913;-69
2022/01/24 14:51:31;;;;;;;;;;;10.90;53.00;;;;;;5080076;28;19916;-70
2022/01/24 14:54:02;;;;;;;;;;;11.00;53.10;;;;;;5080191;28;19916;-69
2022/01/24 14:56:28;;;;;;;;;;;10.90;53.20;;;;;;5080122;28;19946;-69
2022/01/24 14:58:54;;;;;;;;;;;10.90;53.20;;;;;;5080036;28;20193;-70
2022/01/24 15:01:20;;;;;;;;;;;10.80;53.30;;;;;;5080066;28;19954;-70
2022/01/24 15:03:45;;;;;;;;;;;10.80;53.50;;;;;;5080103;28;19904;-70
2022/01/24 15:06:12;;;;;;;;;;;10.80;53.30;;;;;;5079923;28;19917;-70
2022/01/24 15:08:39;;;;;;;;;;;10.80;53.60;;;;;;5080069;28;20430;-70
2022/01/24 15:11:05;;;;;;;;;;;10.70;53.50;;;;;;5079957;28;19962;-70
2022/01/24 15:13:43;;;;;;;;;;;10.70;53.60;;;;;;5078555;28;19920;-69
2022/01/24 15:16:17;;;;;;;;;;;10.70;53.60;;;;;;5079970;28;19932;-70
2022/01/24 15:26:44;;;;;;;;;;;10.70;53.60;;;;;;5079810;28;19905;-69
2022/01/24 15:29:10;;;;;;;;;;;10.70;53.70;;;;;;5079692;28;19934;-69
2022/01/24 15:31:36;;;;;;;;;;;10.80;53.80;;;;;;5078447;28;19912;-69
2022/01/24 15:34:01;;;;;;;;;;;10.70;53.80;;;;;;5079672;28;20277;-69
2022/01/24 15:36:27;;;;;;;;;;;10.70;53.70;;;;;;5079719;28;19913;-69
2022/01/24 15:38:57;;;;;;;;;;;10.70;53.50;;;;;;5079619;28;20111;-70
2022/01/24 15:41:23;;;;;;;;;;;10.70;53.70;;;;;;5078304;28;20187;-69
2022/01/24 15:43:59;;;;;;;;;;;10.60;53.80;;;;;;5079568;28;19911;-69
2022/01/24 15:49:19;;;;;;;;;;;10.60;53.80;;;;;;5074483;28;20161;-69
2022/01/24 15:51:45;;;;;;;;;;;10.70;53.70;;;;;;5082364;28;19961;-70
2022/01/24 15:54:12;;;;;;;;;;;10.70;53.70;;;;;;5082065;28;20204;-69
2022/01/24 15:59:04;;;;;;;;;;;10.70;53.70;;;;;;5083593;28;19939;-70
2022/01/24 16:01:33;;;;;;;;;;;10.70;53.60;;;;;;5083185;28;20010;-70
2022/01/24 16:03:59;;;;;;;;;;;10.70;53.70;;;;;;5083043;28;19920;-70
2022/01/24 16:06:25;;;;;;;;;;;10.70;53.60;;;;;;5083133;28;19913;-70
2022/01/24 16:08:51;;;;;;;;;;;10.70;53.60;;;;;;5082895;28;20209;-70
2022/01/24 16:11:19;;;;;;;;;;;10.70;53.50;;;;;;5082928;28;19923;-70
2022/01/24 16:13:45;;;;;;;;;;;10.70;53.40;;;;;;5082799;28;19925;-70
2022/01/24 16:16:11;;;;;;;;;;;10.70;53.40;;;;;;5082743;28;20030;-69
2022/01/24 16:18:40;;;;;;;;;;;10.70;53.40;;;;;;5082904;28;19988;-70
2022/01/24 16:21:25;;;;;;;;;;;10.60;53.50;;;;;;5081603;28;19912;-70
2022/01/24 16:25:19;;;;;;;;;;;10.70;53.50;;;;;;5082408;28;19919;-70
2022/01/24 16:26:40;;;;;;;;;;;10.60;53.40;;;;;;5082578;28;19913;-71
2022/01/24 16:29:06;;;;;;;;;;;10.70;53.40;;;;;;5082581;28;19991;-70
2022/01/24 16:31:32;;;;;;;;;;;10.70;53.50;;;;;;5082420;28;19923;-71
2022/01/24 16:33:58;;;;;;;;;;;10.70;53.50;;;;;;5082546;28;19904;-70